Time;durP1;ratioP1;P1;durP2;ratioP2;P2;SDS_P1;SDS_P2;PMS_P1;PMS_P2;Temp;Humidity;BMP_temperature;BMP_pressure;BME280_temperature;BME280_humidity;BME280_pressure;Samples;Min_cycle;Max_cycle;Signal;HPM_P1;HPM_P2
2024/01/13 00:02:01;;;;;;;59.73;26.30;;;2.30;99.90;;;;;;4948185;28;20212;-67
2024/01/13 00:04:27;;;;;;;60.63;26.20;;;2.20;1.00;;;;;;4931969;28;20262;-67
2024/01/13 00:06:54;;;;;;;70.53;26.33;;;2.20;99.90;;;;;;4933066;28;20643;-67
2024/01/13 00:09:21;;;;;;;55.77;25.23;;;2.20;99.90;;;;;;4955721;28;20281;-67
2024/01/13 00:11:48;;;;;;;61.03;27.27;;;2.20;99.90;;;;;;4932518;29;20251;-67
2024/01/13 00:14:15;;;;;;;60.37;24.87;;;2.20;99.90;;;;;;4951923;28;20514;-67
2024/01/13 00:16:42;;;;;;;55.83;26.07;;;2.10;99.90;;;;;;4960142;28;20194;-67
2024/01/13 00:19:09;;;;;;;51.37;24.03;;;2.20;99.90;;;;;;4965499;28;20198;-66
2024/01/13 00:21:36;;;;;;;54.97;25.97;;;2.20;99.90;;;;;;4960319;28;20231;-63
2024/01/13 00:24:04;;;;;;;63.03;27.60;;;2.20;99.90;;;;;;4948868;28;20194;-68
2024/01/13 00:26:31;;;;;;;53.40;25.40;;;2.20;99.90;;;;;;4953405;28;20238;-67
2024/01/13 00:28:58;;;;;;;45.53;23.43;;;2.20;99.90;;;;;;4931452;29;20760;-67
2024/01/13 00:31:25;;;;;;;59.70;26.20;;;2.20;99.90;;;;;;4944867;28;20232;-67
2024/01/13 00:33:52;;;;;;;79.07;27.90;;;2.20;99.90;;;;;;4925766;28;20648;-67
2024/01/13 00:36:19;;;;;;;70.20;27.47;;;2.20;99.90;;;;;;4951725;28;20227;-65
2024/01/13 00:38:47;;;;;;;55.43;26.57;;;2.10;99.90;;;;;;4943921;28;20237;-67
2024/01/13 00:41:14;;;;;;;68.53;27.23;;;2.20;99.90;;;;;;4957278;28;20612;-67
2024/01/13 00:43:41;;;;;;;72.73;28.13;;;2.20;99.90;;;;;;4957585;28;20191;-66
2024/01/13 00:46:08;;;;;;;78.93;29.23;;;2.20;99.90;;;;;;4963263;28;20205;-66
2024/01/13 00:48:36;;;;;;;65.13;27.53;;;2.20;99.90;;;;;;4949798;28;20215;-66
2024/01/13 00:51:10;;;;;;;58.50;26.63;;;2.20;99.90;;;;;;4958256;28;20206;-65
2024/01/13 00:53:39;;;;;;;74.03;27.47;;;2.20;99.90;;;;;;4940169;28;20243;-65
2024/01/13 00:56:06;;;;;;;67.57;28.17;;;2.20;99.90;;;;;;4934360;29;20485;-66
2024/01/13 00:58:35;;;;;;;72.93;27.83;;;2.20;99.90;;;;;;4950349;28;20305;-66
2024/01/13 01:01:11;;;;;;;66.77;29.63;;;2.20;99.90;;;;;;4955698;28;20325;-64
2024/01/13 01:03:41;;;;;;;68.27;28.97;;;2.10;99.90;;;;;;4963228;28;20201;-66
2024/01/13 01:06:08;;;;;;;81.77;28.67;;;2.10;99.90;;;;;;4944191;28;20624;-66
2024/01/13 01:08:35;;;;;;;55.80;25.20;;;2.10;99.90;;;;;;4953644;28;20210;-66
2024/01/13 01:11:09;;;;;;;67.17;26.27;;;2.20;99.90;;;;;;4955901;28;20198;-66
2024/01/13 01:13:38;;;;;;;62.37;27.07;;;2.10;99.90;;;;;;4915334;28;20283;-64
2024/01/13 01:16:06;;;;;;;62.57;25.50;;;2.20;99.90;;;;;;4946293;28;20207;-66
2024/01/13 01:18:34;;;;;;;72.73;27.30;;;2.10;99.90;;;;;;4958430;28;20194;-66
2024/01/13 01:21:12;;;;;;;63.33;28.23;;;2.20;99.90;;;;;;4962107;28;20203;-66
2024/01/13 01:23:41;;;;;;;61.40;26.30;;;2.20;99.90;;;;;;4929844;28;20190;-65
2024/01/13 01:26:08;;;;;;;58.13;28.07;;;2.20;99.90;;;;;;4956030;28;20808;-66
2024/01/13 01:28:35;;;;;;;66.87;26.40;;;2.20;99.90;;;;;;4948740;28;20701;-66
2024/01/13 01:31:06;;;;;;;75.00;29.30;;;2.20;99.90;;;;;;4946058;28;20199;-66
2024/01/13 01:33:35;;;;;;;69.27;26.67;;;2.20;99.90;;;;;;4955037;28;20205;-66
2024/01/13 01:36:04;;;;;;;60.27;25.60;;;2.20;99.90;;;;;;4957361;28;20202;-66
2024/01/13 01:38:31;;;;;;;61.37;25.60;;;2.10;99.90;;;;;;4947960;28;20189;-66
2024/01/13 01:41:16;;;;;;;59.27;24.20;;;2.10;99.90;;;;;;4962118;28;20277;-64
2024/01/13 01:43:45;;;;;;;62.53;25.77;;;2.10;99.90;;;;;;4950240;28;20213;-66
2024/01/13 01:46:21;;;;;;;77.10;25.83;;;2.10;99.90;;;;;;4959752;28;20199;-66
2024/01/13 01:48:55;;;;;;;61.93;23.80;;;2.10;99.90;;;;;;4952755;28;20217;-66
2024/01/13 01:51:22;;;;;;;62.20;25.30;;;2.10;99.90;;;;;;4956466;28;20194;-66
2024/01/13 01:53:50;;;;;;;60.63;26.53;;;2.10;1.00;;;;;;4959601;28;20195;-66
2024/01/13 01:56:21;;;;;;;70.77;26.70;;;2.10;99.90;;;;;;4961604;28;20296;-66
2024/01/13 01:58:50;;;;;;;66.43;26.17;;;2.10;99.90;;;;;;4963667;28;20241;-66
2024/01/13 02:01:18;;;;;;;70.77;27.53;;;2.10;99.90;;;;;;4958981;28;20238;-66
2024/01/13 02:03:47;;;;;;;59.07;26.37;;;2.10;99.90;;;;;;4948401;28;20199;-66
2024/01/13 02:06:15;;;;;;;53.00;21.97;;;2.10;99.90;;;;;;4959091;28;20265;-66
2024/01/13 02:08:43;;;;;;;64.33;24.60;;;2.10;99.90;;;;;;4949481;28;20214;-66
2024/01/13 02:11:10;;;;;;;70.77;27.23;;;2.10;99.90;;;;;;4936521;28;20198;-67
2024/01/13 02:13:39;;;;;;;63.70;24.80;;;2.10;99.90;;;;;;4928064;29;20221;-68
2024/01/13 02:16:08;;;;;;;65.17;25.00;;;2.10;99.90;;;;;;4958827;28;20199;-65
2024/01/13 02:18:35;;;;;;;69.17;25.60;;;2.10;99.90;;;;;;4943352;28;20214;-66
2024/01/13 02:21:08;;;;;;;64.53;23.30;;;2.10;99.90;;;;;;4954509;28;20200;-66
2024/01/13 02:23:36;;;;;;;63.33;25.03;;;2.10;99.90;;;;;;4957636;28;20281;-65
2024/01/13 02:26:03;;;;;;;64.13;24.53;;;2.20;99.90;;;;;;4962218;28;20234;-66
2024/01/13 02:28:30;;;;;;;73.47;27.00;;;2.20;99.90;;;;;;4966578;28;20216;-66
2024/01/13 02:31:14;;;;;;;62.53;24.33;;;2.20;99.90;;;;;;4954778;28;20634;-66
2024/01/13 02:33:42;;;;;;;69.30;25.73;;;2.20;99.90;;;;;;4953400;28;20250;-67
2024/01/13 02:36:09;;;;;;;67.73;27.40;;;2.20;99.90;;;;;;4956079;28;20658;-66
2024/01/13 02:38:36;;;;;;;64.77;26.03;;;2.20;99.90;;;;;;4949428;28;20254;-65
2024/01/13 02:41:07;;;;;;;60.33;25.73;;;2.20;99.90;;;;;;4961436;28;20206;-68
2024/01/13 02:43:36;;;;;;;62.73;27.17;;;2.20;99.90;;;;;;4962324;28;20679;-65
2024/01/13 02:46:05;;;;;;;75.40;26.60;;;2.10;99.90;;;;;;4940042;28;20675;-65
2024/01/13 02:48:44;;;;;;;78.20;27.80;;;2.20;99.90;;;;;;4928777;29;20337;-64
2024/01/13 02:51:16;;;;;;;76.07;27.67;;;2.20;99.90;;;;;;4949212;28;20270;-66
2024/01/13 02:53:45;;;;;;;57.00;26.83;;;2.20;99.90;;;;;;4948360;28;20195;-67
2024/01/13 02:56:12;;;;;;;62.00;27.70;;;2.10;99.90;;;;;;4929636;28;20205;-66
2024/01/13 02:58:40;;;;;;;68.80;26.33;;;2.20;99.90;;;;;;4955225;28;20933;-67
2024/01/13 03:05:12;;;;;;;54.67;24.53;;;2.10;99.90;;;;;;4954121;28;20642;-66
2024/01/13 03:07:39;;;;;;;73.27;27.47;;;2.10;99.90;;;;;;4954909;28;20314;-66
2024/01/13 03:10:07;;;;;;;69.17;28.63;;;2.10;99.90;;;;;;4956913;28;20226;-66
2024/01/13 03:12:33;;;;;;;69.63;27.90;;;2.10;99.90;;;;;;4960696;28;20210;-65
2024/01/13 03:15:02;;;;;;;66.03;26.13;;;2.10;99.90;;;;;;4950762;28;20195;-68
2024/01/13 03:17:29;;;;;;;83.87;27.27;;;2.10;99.90;;;;;;4955177;28;20320;-66
2024/01/13 03:19:56;;;;;;;78.00;29.03;;;2.10;99.90;;;;;;4940183;28;20291;-66
2024/01/13 03:22:24;;;;;;;74.17;28.97;;;2.10;99.90;;;;;;4964695;28;20276;-68
2024/01/13 03:24:50;;;;;;;64.23;26.50;;;2.10;99.90;;;;;;4957354;28;20507;-65
2024/01/13 03:27:17;;;;;;;75.97;28.43;;;2.10;99.90;;;;;;4934590;28;20507;-66
2024/01/13 03:29:44;;;;;;;75.20;27.50;;;2.10;99.90;;;;;;4935540;28;20290;-67
2024/01/13 03:32:11;;;;;;;69.87;27.10;;;2.10;99.90;;;;;;4955003;28;20191;-68
2024/01/13 03:34:38;;;;;;;69.43;28.63;;;2.20;99.90;;;;;;4954483;28;20933;-68
2024/01/13 03:37:06;;;;;;;64.77;26.93;;;2.10;99.90;;;;;;4954744;28;20548;-67
2024/01/13 03:39:33;;;;;;;54.23;26.17;;;2.10;99.90;;;;;;4942436;28;20640;-68
2024/01/13 03:42:00;;;;;;;58.60;26.10;;;2.10;99.90;;;;;;4940855;28;20191;-67
2024/01/13 03:44:27;;;;;;;59.20;27.17;;;2.20;99.90;;;;;;4948951;28;20571;-67
2024/01/13 03:46:54;;;;;;;54.23;25.37;;;2.20;99.90;;;;;;4957789;28;20253;-67
2024/01/13 03:49:21;;;;;;;52.93;26.57;;;2.10;99.90;;;;;;4951964;28;20230;-67
2024/01/13 03:51:48;;;;;;;58.37;27.40;;;2.10;99.90;;;;;;4954667;28;20199;-67
2024/01/13 03:54:15;;;;;;;57.83;25.50;;;2.20;99.90;;;;;;4955340;28;20596;-68
2024/01/13 03:56:42;;;;;;;53.83;24.43;;;2.20;99.90;;;;;;4958397;28;20198;-67
2024/01/13 03:59:12;;;;;;;59.70;27.03;;;2.20;99.90;;;;;;4958970;28;20218;-68
2024/01/13 04:01:39;;;;;;;52.90;25.07;;;2.10;99.90;;;;;;4954060;28;20660;-67
2024/01/13 04:04:06;;;;;;;53.00;23.93;;;2.20;99.90;;;;;;4948816;28;20210;-67
2024/01/13 04:06:39;;;;;;;57.63;26.27;;;2.20;99.90;;;;;;4950462;28;20195;-68
2024/01/13 04:09:08;;;;;;;55.10;23.80;;;2.20;99.90;;;;;;4944063;28;20222;-64
2024/01/13 04:11:35;;;;;;;62.93;25.67;;;2.20;99.90;;;;;;4947567;28;20545;-68
2024/01/13 04:14:02;;;;;;;53.67;25.73;;;2.10;99.90;;;;;;4956573;28;20201;-67
2024/01/13 04:16:29;;;;;;;50.10;23.17;;;2.20;99.90;;;;;;4953870;28;20304;-68
2024/01/13 04:18:56;;;;;;;45.37;22.83;;;2.20;99.90;;;;;;4962137;28;20301;-67
2024/01/13 04:21:24;;;;;;;56.17;24.77;;;2.10;99.90;;;;;;4958766;28;20199;-68
2024/01/13 04:23:51;;;;;;;52.20;25.13;;;2.10;99.90;;;;;;4947146;28;20390;-67
2024/01/13 04:26:21;;;;;;;51.83;25.33;;;2.10;99.90;;;;;;4947469;28;20217;-67
2024/01/13 04:28:48;;;;;;;47.23;23.90;;;2.10;99.90;;;;;;4953992;28;20214;-67
2024/01/13 04:31:15;;;;;;;55.20;25.70;;;2.10;99.90;;;;;;4934070;28;20828;-66
2024/01/13 04:33:42;;;;;;;52.37;23.70;;;2.10;99.90;;;;;;4949564;28;20552;-67
2024/01/13 04:36:09;;;;;;;55.33;24.47;;;2.10;99.90;;;;;;4960948;28;20273;-64
2024/01/13 04:38:36;;;;;;;55.33;26.53;;;2.20;99.90;;;;;;4960522;28;20204;-66
2024/01/13 04:41:03;;;;;;;48.83;24.57;;;2.10;99.90;;;;;;4954353;28;20642;-67
2024/01/13 04:43:30;;;;;;;45.47;23.47;;;2.10;99.90;;;;;;4955769;28;20657;-67
2024/01/13 04:45:57;;;;;;;53.63;23.97;;;2.10;99.90;;;;;;4949337;28;20592;-66
2024/01/13 04:48:24;;;;;;;37.20;21.87;;;2.10;99.90;;;;;;4912948;29;20222;-65
2024/01/13 04:50:51;;;;;;;48.77;25.83;;;2.10;99.90;;;;;;4948115;28;20191;-65
2024/01/13 04:53:18;;;;;;;55.50;22.80;;;2.10;99.90;;;;;;4948771;28;20633;-68
2024/01/13 04:55:45;;;;;;;44.83;24.47;;;2.10;99.90;;;;;;4935290;29;20258;-67
2024/01/13 04:58:12;;;;;;;37.90;21.33;;;2.20;99.90;;;;;;4949057;28;20696;-66
2024/01/13 05:00:39;;;;;;;37.73;21.50;;;2.20;99.90;;;;;;4946944;28;20750;-66
2024/01/13 05:03:06;;;;;;;37.63;21.53;;;2.20;99.90;;;;;;4945127;28;20299;-63
2024/01/13 05:05:33;;;;;;;50.57;21.43;;;2.20;99.90;;;;;;4929406;28;20194;-66
2024/01/13 05:08:00;;;;;;;34.17;20.43;;;2.20;99.90;;;;;;4947125;28;20944;-65
2024/01/13 05:10:27;;;;;;;40.27;21.97;;;2.30;99.90;;;;;;4932934;28;20187;-66
2024/01/13 05:12:54;;;;;;;39.03;23.33;;;2.20;99.90;;;;;;4948814;28;20195;-66
2024/01/13 05:15:22;;;;;;;50.83;24.63;;;2.20;99.90;;;;;;4930989;28;20539;-66
2024/01/13 05:17:49;;;;;;;41.40;23.13;;;2.20;99.90;;;;;;4950478;28;20230;-65
2024/01/13 05:20:16;;;;;;;43.17;24.93;;;2.20;99.90;;;;;;4949390;28;20203;-67
2024/01/13 05:22:43;;;;;;;36.17;22.40;;;2.30;99.90;;;;;;4935985;28;20266;-67
2024/01/13 05:25:13;;;;;;;41.03;23.73;;;2.30;99.90;;;;;;4958129;28;20199;-63
2024/01/13 05:27:40;;;;;;;36.83;23.40;;;2.30;99.90;;;;;;4950567;28;20199;-64
2024/01/13 05:30:09;;;;;;;40.77;24.87;;;2.30;99.90;;;;;;4950516;28;20664;-65
2024/01/13 05:32:39;;;;;;;40.00;24.93;;;2.30;99.90;;;;;;4932781;28;20312;-67
2024/01/13 05:35:07;;;;;;;46.43;24.83;;;2.30;99.90;;;;;;4936766;28;20332;-67
2024/01/13 05:37:34;;;;;;;42.40;23.80;;;2.30;99.90;;;;;;4951258;28;20208;-65
2024/01/13 05:40:04;;;;;;;40.03;23.30;;;2.30;99.90;;;;;;4957106;28;20667;-64
2024/01/13 05:42:31;;;;;;;44.10;25.30;;;2.20;99.90;;;;;;4954425;28;20730;-65
2024/01/13 05:44:58;;;;;;;41.27;22.97;;;2.30;99.90;;;;;;4935616;29;20386;-66
2024/01/13 05:47:25;;;;;;;39.23;23.60;;;2.20;99.90;;;;;;4923499;28;20194;-66
2024/01/13 05:49:52;;;;;;;40.50;23.10;;;2.30;99.90;;;;;;4946017;28;20249;-65
2024/01/13 05:52:20;;;;;;;38.60;22.97;;;2.20;99.90;;;;;;4953024;28;20620;-62
2024/01/13 05:54:47;;;;;;;37.00;22.80;;;2.30;99.90;;;;;;4935991;29;20398;-60
2024/01/13 05:57:14;;;;;;;33.00;21.33;;;2.30;99.90;;;;;;4950647;28;20650;-58
2024/01/13 05:59:41;;;;;;;39.33;22.30;;;2.30;99.90;;;;;;4961186;28;20242;-59
2024/01/13 06:02:08;;;;;;;39.07;21.37;;;2.30;99.90;;;;;;4944848;28;20601;-58
2024/01/13 06:04:35;;;;;;;31.47;21.00;;;2.30;99.90;;;;;;4961019;28;20253;-61
2024/01/13 06:07:04;;;;;;;31.17;21.80;;;2.30;99.90;;;;;;4953854;28;20285;-61
2024/01/13 06:09:31;;;;;;;33.13;22.83;;;2.30;99.90;;;;;;4951505;28;20203;-60
2024/01/13 06:11:58;;;;;;;40.37;22.63;;;2.30;99.90;;;;;;4949210;28;20203;-60
2024/01/13 06:14:25;;;;;;;33.67;21.70;;;2.30;99.90;;;;;;4953756;28;20684;-59
2024/01/13 06:16:52;;;;;;;33.50;22.77;;;2.30;99.90;;;;;;4947168;28;20199;-60
2024/01/13 06:19:19;;;;;;;30.00;22.03;;;2.30;99.90;;;;;;4953284;28;20223;-61
2024/01/13 06:21:46;;;;;;;33.13;22.27;;;2.30;99.90;;;;;;4947305;28;20205;-59
2024/01/13 06:24:14;;;;;;;27.33;20.37;;;2.30;99.90;;;;;;4948864;28;20301;-61
2024/01/13 06:26:41;;;;;;;29.57;20.80;;;2.30;99.90;;;;;;4954303;28;20209;-69
2024/01/13 06:29:09;;;;;;;33.47;21.77;;;2.20;99.90;;;;;;4942113;28;20458;-59
2024/01/13 06:31:36;;;;;;;35.27;23.30;;;2.20;99.90;;;;;;4929325;29;20624;-60
2024/01/13 06:34:03;;;;;;;32.73;21.50;;;2.20;99.90;;;;;;4932542;28;20194;-59
2024/01/13 06:36:31;;;;;;;26.10;20.37;;;2.20;99.90;;;;;;4956584;28;20195;-59
2024/01/13 06:38:57;;;;;;;33.57;20.93;;;2.20;99.90;;;;;;4933410;28;20297;-59
2024/01/13 06:41:25;;;;;;;25.80;19.87;;;2.20;99.90;;;;;;4952026;28;20329;-59
2024/01/13 06:43:51;;;;;;;25.70;20.10;;;2.20;99.90;;;;;;4945002;28;20509;-61
2024/01/13 06:46:18;;;;;;;27.37;21.27;;;2.10;99.90;;;;;;4951342;28;20246;-60
2024/01/13 06:48:45;;;;;;;28.13;21.03;;;2.10;99.90;;;;;;4949873;28;20210;-59
2024/01/13 06:51:14;;;;;;;24.40;19.30;;;2.10;99.90;;;;;;4930255;28;20539;-61
2024/01/13 06:53:41;;;;;;;31.07;23.03;;;2.10;99.90;;;;;;4936034;28;20186;-60
2024/01/13 06:56:08;;;;;;;26.97;19.80;;;2.20;99.90;;;;;;4947919;28;20294;-60
2024/01/13 06:58:35;;;;;;;26.67;19.50;;;2.20;99.90;;;;;;4951344;28;20226;-60
2024/01/13 07:01:02;;;;;;;28.23;20.37;;;2.20;99.90;;;;;;4953040;28;20238;-60
2024/01/13 07:03:30;;;;;;;27.43;19.70;;;2.20;99.90;;;;;;4927982;28;20237;-62
2024/01/13 07:05:57;;;;;;;25.83;18.43;;;2.30;99.90;;;;;;4927463;28;20210;-60
2024/01/13 07:08:24;;;;;;;24.27;19.63;;;2.30;99.90;;;;;;4937988;28;20490;-61
2024/01/13 07:10:54;;;;;;;26.37;19.33;;;2.20;99.90;;;;;;4953029;28;20198;-59
2024/01/13 07:13:21;;;;;;;28.57;18.93;;;2.20;99.90;;;;;;4940310;28;20199;-59
2024/01/13 07:15:48;;;;;;;29.57;20.17;;;2.20;99.90;;;;;;4948385;28;20203;-59
2024/01/13 07:18:15;;;;;;;24.67;18.43;;;2.20;99.90;;;;;;4952919;28;20558;-59
2024/01/13 07:20:42;;;;;;;29.17;18.63;;;2.20;99.90;;;;;;4933271;28;20597;-61
2024/01/13 07:23:09;;;;;;;27.70;19.63;;;2.20;99.90;;;;;;4957958;28;20532;-59
2024/01/13 07:25:36;;;;;;;33.90;21.33;;;2.20;99.90;;;;;;4938528;29;20210;-60
2024/01/13 07:28:03;;;;;;;29.83;19.73;;;2.20;99.90;;;;;;4914107;28;20611;-59
2024/01/13 07:30:30;;;;;;;40.07;21.47;;;2.20;99.90;;;;;;4947315;28;20672;-60
2024/01/13 07:32:57;;;;;;;31.20;20.00;;;2.20;99.90;;;;;;4946932;28;20598;-59
2024/01/13 07:35:24;;;;;;;25.37;19.23;;;2.20;99.90;;;;;;4937019;29;20217;-58
2024/01/13 07:37:51;;;;;;;27.63;18.30;;;2.20;99.90;;;;;;4945343;28;20213;-58
2024/01/13 07:40:18;;;;;;;28.63;18.73;;;2.20;99.90;;;;;;4947770;28;20203;-61
2024/01/13 07:42:45;;;;;;;28.70;19.00;;;2.20;99.90;;;;;;4931594;29;20199;-61
2024/01/13 07:45:12;;;;;;;29.57;19.83;;;2.20;99.90;;;;;;4951638;28;20198;-61
2024/01/13 07:47:40;;;;;;;28.63;19.03;;;2.20;99.90;;;;;;4943570;28;20205;-61
2024/01/13 07:50:07;;;;;;;32.27;18.60;;;2.20;99.90;;;;;;4930633;29;20221;-60
2024/01/13 07:52:34;;;;;;;27.60;20.57;;;2.20;99.90;;;;;;4950605;28;20290;-60
2024/01/13 07:55:01;;;;;;;31.67;21.37;;;2.20;99.90;;;;;;4952815;28;20404;-61
2024/01/13 07:57:29;;;;;;;29.13;19.40;;;2.30;99.90;;;;;;4959425;28;20253;-61
2024/01/13 07:59:56;;;;;;;30.40;20.00;;;2.40;99.90;;;;;;4966305;28;20674;-62
2024/01/13 08:02:23;;;;;;;33.53;20.53;;;2.30;99.90;;;;;;4936800;28;20230;-62
2024/01/13 08:04:50;;;;;;;37.30;21.57;;;2.40;99.90;;;;;;4947241;28;20357;-61
2024/01/13 08:07:17;;;;;;;30.27;21.50;;;2.30;99.90;;;;;;4949129;28;20611;-60
2024/01/13 08:09:44;;;;;;;36.50;19.93;;;2.40;99.90;;;;;;4950273;28;20215;-60
2024/01/13 08:12:11;;;;;;;28.23;20.73;;;2.40;99.90;;;;;;4949667;28;20246;-65
2024/01/13 08:14:38;;;;;;;30.80;20.97;;;2.40;99.90;;;;;;4935930;28;20195;-67
2024/01/13 08:17:07;;;;;;;36.60;23.30;;;2.40;99.90;;;;;;4936046;29;20747;-64
2024/01/13 08:19:35;;;;;;;28.63;22.20;;;2.40;99.90;;;;;;4960294;28;20608;-64
2024/01/13 08:22:03;;;;;;;33.50;23.60;;;2.50;99.90;;;;;;4952350;28;20729;-65
2024/01/13 08:24:30;;;;;;;35.37;22.73;;;2.40;99.90;;;;;;4947335;28;20290;-65
2024/01/13 08:26:57;;;;;;;33.17;22.20;;;2.50;99.90;;;;;;4953085;28;20278;-65
2024/01/13 08:29:24;;;;;;;29.93;20.43;;;2.50;99.90;;;;;;4938085;28;20307;-65
2024/01/13 08:31:51;;;;;;;34.73;23.13;;;2.50;99.90;;;;;;4953317;28;20195;-66
2024/01/13 08:34:18;;;;;;;31.93;24.03;;;2.50;99.90;;;;;;4957957;28;20199;-66
2024/01/13 08:36:46;;;;;;;38.47;23.53;;;2.50;99.90;;;;;;4962348;28;20622;-67
2024/01/13 08:39:13;;;;;;;37.10;23.77;;;2.60;99.90;;;;;;4949697;28;20191;-65
2024/01/13 08:41:40;;;;;;;36.27;24.30;;;2.60;99.90;;;;;;4942754;29;20714;-64
2024/01/13 08:44:07;;;;;;;37.47;24.87;;;2.60;99.90;;;;;;4956054;28;20269;-66
2024/01/13 08:46:34;;;;;;;37.30;22.90;;;2.50;99.90;;;;;;4951897;28;20197;-66
2024/01/13 08:49:01;;;;;;;30.37;23.60;;;2.60;99.90;;;;;;4935007;29;20718;-65
2024/01/13 08:51:28;;;;;;;30.97;21.97;;;2.60;99.90;;;;;;4939684;28;20214;-65
2024/01/13 08:54:03;;;;;;;32.27;22.47;;;2.60;99.90;;;;;;4952328;28;20287;-68
2024/01/13 08:56:34;;;;;;;32.57;23.77;;;2.60;99.90;;;;;;4966373;28;20677;-63
2024/01/13 08:59:02;;;;;;;35.20;26.07;;;2.60;99.90;;;;;;4961457;28;20297;-66
2024/01/13 09:01:29;;;;;;;32.63;23.37;;;2.60;99.90;;;;;;4937422;28;20322;-66
2024/01/13 09:04:04;;;;;;;35.47;24.93;;;2.60;99.90;;;;;;4960991;28;20205;-66
2024/01/13 09:06:33;;;;;;;32.90;22.47;;;2.60;99.90;;;;;;4934782;28;20290;-67
2024/01/13 09:09:01;;;;;;;25.27;22.03;;;2.60;99.90;;;;;;4956258;28;20222;-66
2024/01/13 09:11:29;;;;;;;32.10;23.47;;;2.70;99.90;;;;;;4954077;28;20233;-66
2024/01/13 09:14:08;;;;;;;31.37;23.63;;;2.70;99.90;;;;;;4947791;28;20199;-65
2024/01/13 09:16:36;;;;;;;33.67;23.90;;;2.70;99.90;;;;;;4946834;28;20203;-64
2024/01/13 09:19:03;;;;;;;29.10;22.87;;;2.70;99.90;;;;;;4954967;28;20206;-63
2024/01/13 09:21:30;;;;;;;31.83;23.07;;;2.70;99.90;;;;;;4948301;28;20276;-64
2024/01/13 09:24:07;;;;;;;28.83;24.63;;;2.80;99.90;;;;;;4952724;28;20237;-64
2024/01/13 09:26:45;;;;;;;30.00;22.77;;;2.80;99.90;;;;;;4952538;28;20548;-65
2024/01/13 09:29:16;;;;;;;27.53;21.13;;;2.80;99.90;;;;;;4951932;28;20539;-63
2024/01/13 09:31:47;;;;;;;31.47;21.43;;;2.80;99.90;;;;;;4947260;28;20285;-64
2024/01/13 09:34:14;;;;;;;27.23;22.20;;;2.80;99.90;;;;;;4938915;28;20230;-64
2024/01/13 09:36:42;;;;;;;26.07;21.67;;;2.90;99.90;;;;;;4952144;28;20274;-65
2024/01/13 09:39:16;;;;;;;30.17;21.87;;;2.90;99.90;;;;;;4934283;29;20330;-64
2024/01/13 09:41:47;;;;;;;21.03;19.00;;;2.80;99.90;;;;;;4950918;28;20206;-64
2024/01/13 09:44:23;;;;;;;27.77;21.17;;;2.80;99.90;;;;;;4949632;28;20283;-64
2024/01/13 09:46:53;;;;;;;23.53;21.10;;;2.90;99.90;;;;;;4931878;28;20195;-64
2024/01/13 09:49:25;;;;;;;25.43;21.20;;;3.00;99.90;;;;;;4948163;28;20233;-65
2024/01/13 09:51:54;;;;;;;20.63;18.50;;;2.90;99.90;;;;;;4939023;29;20218;-64
2024/01/13 09:54:29;;;;;;;21.17;18.63;;;2.90;99.90;;;;;;4941186;28;20199;-65
2024/01/13 09:56:58;;;;;;;24.07;20.43;;;2.90;99.90;;;;;;4931506;28;20279;-66
2024/01/13 09:59:28;;;;;;;31.27;20.60;;;3.00;99.90;;;;;;4938861;29;20302;-65
2024/01/13 10:02:00;;;;;;;23.00;19.80;;;3.00;99.90;;;;;;4938055;29;20226;-65
2024/01/13 10:04:31;;;;;;;25.17;19.87;;;3.00;99.90;;;;;;4932727;28;20214;-64
2024/01/13 10:06:59;;;;;;;26.03;20.40;;;3.00;99.90;;;;;;4919653;28;20199;-65
2024/01/13 10:09:27;;;;;;;25.80;19.47;;;2.90;99.90;;;;;;4939322;29;20711;-65
2024/01/13 10:12:05;;;;;;;24.50;19.40;;;3.00;99.90;;;;;;4931513;28;20271;-65
2024/01/13 10:14:38;;;;;;;24.17;20.03;;;3.10;99.90;;;;;;4948999;28;20248;-65
2024/01/13 10:17:06;;;;;;;21.17;18.20;;;2.90;99.90;;;;;;4934260;29;20258;-65
2024/01/13 10:19:42;;;;;;;23.17;18.37;;;2.90;99.90;;;;;;4945248;28;20262;-63
2024/01/13 10:22:12;;;;;;;23.30;18.87;;;2.90;99.90;;;;;;4960020;28;20674;-66
2024/01/13 10:24:39;;;;;;;23.53;19.30;;;2.90;99.90;;;;;;4963755;28;20586;-65
2024/01/13 10:27:08;;;;;;;27.37;18.67;;;2.90;99.90;;;;;;4958890;28;20199;-65
2024/01/13 10:29:37;;;;;;;24.20;19.10;;;2.90;99.90;;;;;;4954551;28;20210;-65
2024/01/13 10:32:08;;;;;;;23.27;19.07;;;2.90;99.90;;;;;;4933987;28;20186;-61
2024/01/13 10:34:36;;;;;;;24.97;18.60;;;2.90;99.90;;;;;;4955328;28;20187;-60
2024/01/13 10:37:10;;;;;;;26.10;18.00;;;3.00;99.90;;;;;;4953774;28;20643;-60
2024/01/13 10:39:38;;;;;;;24.03;18.47;;;3.00;99.90;;;;;;4941392;28;20190;-60
2024/01/13 10:42:11;;;;;;;24.83;19.10;;;3.00;99.90;;;;;;4941891;28;20285;-61
2024/01/13 10:44:46;;;;;;;24.13;19.87;;;3.00;99.90;;;;;;4949903;28;20283;-61
2024/01/13 10:47:15;;;;;;;23.30;18.60;;;3.00;99.90;;;;;;4922235;28;20210;-61
2024/01/13 10:49:47;;;;;;;31.23;19.73;;;2.90;99.90;;;;;;4946968;28;20220;-60
2024/01/13 10:52:22;;;;;;;25.17;19.00;;;3.00;99.90;;;;;;4949247;28;20957;-60
2024/01/13 10:54:49;;;;;;;30.57;19.83;;;2.90;99.90;;;;;;4947316;28;20187;-62
2024/01/13 10:57:18;;;;;;;27.17;20.90;;;2.90;99.90;;;;;;4951200;28;20529;-61
2024/01/13 10:59:47;;;;;;;28.87;20.53;;;2.90;99.90;;;;;;4955512;28;20332;-61
2024/01/13 11:02:15;;;;;;;24.90;20.03;;;3.00;99.90;;;;;;4914949;29;20254;-61
2024/01/13 11:04:44;;;;;;;32.43;22.20;;;3.00;99.90;;;;;;4955140;28;20572;-61
2024/01/13 11:07:11;;;;;;;32.60;21.47;;;3.20;99.90;;;;;;4925776;29;20198;-61
2024/01/13 11:09:39;;;;;;;36.70;21.90;;;3.10;99.90;;;;;;4934190;29;20214;-60
2024/01/13 11:12:17;;;;;;;32.57;21.90;;;3.10;99.90;;;;;;4932459;28;20258;-61
2024/01/13 11:15:11;;;;;;;33.90;23.33;;;3.20;99.90;;;;;;4953813;28;20194;-60
2024/01/13 11:17:40;;;;;;;29.33;21.63;;;3.20;99.90;;;;;;4927367;29;20218;-61
2024/01/13 11:20:10;;;;;;;30.23;21.23;;;3.20;99.90;;;;;;4949698;28;20290;-61
2024/01/13 11:22:42;;;;;;;40.33;26.57;;;3.10;99.90;;;;;;4943540;28;20282;-61
2024/01/13 11:25:25;;;;;;;30.23;21.77;;;3.10;99.90;;;;;;4955870;28;20199;-61
2024/01/13 11:28:00;;;;;;;42.10;24.87;;;3.10;99.90;;;;;;4949915;28;20274;-61
2024/01/13 11:30:38;;;;;;;35.97;22.33;;;3.10;99.90;;;;;;4949667;28;20293;-61
2024/01/13 11:33:10;;;;;;;45.27;24.93;;;3.10;99.90;;;;;;4932036;29;20195;-60
2024/01/13 11:35:38;;;;;;;32.90;22.83;;;3.10;99.90;;;;;;4953403;28;20190;-61
2024/01/13 11:38:06;;;;;;;36.77;19.70;;;3.10;99.90;;;;;;4949212;28;20191;-61
2024/01/13 11:40:33;;;;;;;29.57;20.50;;;3.10;99.90;;;;;;4955452;28;20198;-67
2024/01/13 11:43:03;;;;;;;34.07;21.43;;;3.10;99.90;;;;;;4955592;28;20191;-66
2024/01/13 11:45:40;;;;;;;31.83;21.60;;;3.10;99.90;;;;;;4951710;28;20532;-65
2024/01/13 11:48:29;;;;;;;31.83;21.63;;;3.10;99.90;;;;;;4958042;28;20277;-66
2024/01/13 11:50:56;;;;;;;37.00;22.87;;;3.10;99.90;;;;;;4953192;28;20215;-66
2024/01/13 11:53:44;;;;;;;36.20;25.10;;;3.20;99.90;;;;;;4952029;28;20655;-66
2024/01/13 11:56:16;;;;;;;34.83;22.77;;;3.20;99.90;;;;;;4924726;28;20297;-67
2024/01/13 11:58:43;;;;;;;34.33;21.43;;;3.10;99.90;;;;;;4946022;28;20199;-67
2024/01/13 12:01:11;;;;;;;30.40;21.53;;;3.10;99.90;;;;;;4952056;28;20628;-65
2024/01/13 12:03:42;;;;;;;31.73;21.47;;;3.10;99.90;;;;;;4932555;28;20191;-66
2024/01/13 12:06:11;;;;;;;31.67;21.77;;;3.10;99.90;;;;;;4921233;28;20309;-70
2024/01/13 12:08:39;;;;;;;32.00;22.23;;;3.10;1.00;;;;;;4945188;28;20233;-63
2024/01/13 12:11:07;;;;;;;31.60;22.47;;;3.20;99.90;;;;;;4956815;28;20229;-66
2024/01/13 12:13:34;;;;;;;29.83;21.60;;;3.20;99.90;;;;;;4931602;29;20645;-63
2024/01/13 12:16:08;;;;;;;34.10;24.03;;;3.20;99.90;;;;;;4953869;28;20209;-65
2024/01/13 12:18:35;;;;;;;30.37;21.93;;;3.20;99.90;;;;;;4927171;28;20222;-63
2024/01/13 12:21:04;;;;;;;28.23;22.13;;;3.30;99.90;;;;;;4938464;28;20206;-63
2024/01/13 12:23:33;;;;;;;29.90;20.73;;;3.20;99.90;;;;;;4961543;28;20205;-63
2024/01/13 12:26:02;;;;;;;29.63;23.47;;;3.30;99.90;;;;;;4941574;28;20280;-64
2024/01/13 12:28:41;;;;;;;34.60;22.73;;;3.30;99.90;;;;;;4961250;28;20541;-63
2024/01/13 12:31:10;;;;;;;24.97;20.83;;;3.30;99.90;;;;;;4958141;28;20213;-66
2024/01/13 12:33:37;;;;;;;31.60;22.47;;;3.30;99.90;;;;;;4950228;28;20206;-65
2024/01/13 12:36:11;;;;;;;31.90;24.67;;;3.20;99.90;;;;;;4955926;28;20199;-62
2024/01/13 12:38:38;;;;;;;34.00;23.57;;;3.30;99.90;;;;;;4955972;28;20203;-63
2024/01/13 12:41:09;;;;;;;32.60;23.17;;;3.30;99.90;;;;;;4941194;28;20323;-62
2024/01/13 12:43:38;;;;;;;32.67;22.23;;;3.30;99.90;;;;;;4940509;28;20206;-63
2024/01/13 12:46:06;;;;;;;34.77;23.50;;;3.40;99.90;;;;;;4938109;28;20317;-63
2024/01/13 12:48:33;;;;;;;38.63;23.17;;;3.50;99.90;;;;;;4959717;28;20198;-65
2024/01/13 12:51:11;;;;;;;35.90;24.83;;;3.40;99.90;;;;;;4935973;28;20233;-64